createdAt,value
2022-11-26T00:02:27.210Z,77.25
2022-11-26T00:04:57.163Z,76.82
2022-11-26T00:07:27.569Z,77.31
2022-11-26T00:09:56.926Z,77.12
2022-11-26T00:12:29.385Z,77.15
2022-11-26T00:14:58.754Z,77.26
2022-11-26T00:17:26.386Z,76.98
2022-11-26T00:19:56.174Z,77.17
2022-11-26T00:22:31.778Z,77.58
2022-11-26T00:24:59.574Z,77.63
2022-11-26T00:27:28.432Z,77.65
2022-11-26T00:29:56.464Z,77.56
2022-11-26T00:32:26.608Z,78.07
2022-11-26T00:34:54.386Z,78.00
2022-11-26T00:37:29.735Z,78.25
2022-11-26T00:39:58.315Z,77.55
2022-11-26T00:42:25.608Z,77.72
2022-11-26T00:44:52.795Z,77.99
2022-11-26T00:47:20.000Z,77.64
2022-11-26T00:49:47.159Z,77.72
2022-11-26T00:52:35.554Z,77.49
2022-11-26T00:55:16.372Z,77.35
2022-11-26T00:57:43.954Z,77.39
2022-11-26T01:00:20.952Z,77.76
2022-11-26T01:02:48.794Z,77.94
2022-11-26T01:05:16.918Z,78.10
2022-11-26T01:07:45.617Z,78.18
2022-11-26T01:10:24.422Z,78.13
2022-11-26T01:12:53.434Z,78.44
2022-11-26T01:15:24.159Z,78.53
2022-11-26T01:17:53.076Z,78.60
2022-11-26T01:20:30.840Z,78.99
2022-11-26T01:22:59.364Z,78.81
2022-11-26T01:25:28.085Z,78.09
2022-11-26T01:27:55.535Z,78.30
2022-11-26T01:30:27.186Z,78.63
2022-11-26T01:32:54.504Z,78.50
2022-11-26T01:35:22.675Z,78.49
2022-11-26T01:37:50.567Z,78.84
2022-11-26T01:40:26.996Z,78.13
2022-11-26T01:43:00.420Z,78.63
2022-11-26T01:45:28.226Z,78.46
2022-11-26T01:47:55.390Z,78.25
2022-11-26T01:50:28.899Z,78.48
2022-11-26T01:53:19.646Z,77.98
2022-11-26T01:55:57.864Z,78.38
2022-11-26T01:58:39.653Z,78.17
2022-11-26T02:01:08.372Z,78.30
2022-11-26T02:03:43.908Z,78.31
2022-11-26T02:06:21.254Z,77.68
2022-11-26T02:08:48.632Z,77.74
2022-11-26T02:11:24.254Z,78.00
2022-11-26T02:13:56.734Z,77.30
2022-11-26T02:16:48.292Z,77.27
2022-11-26T02:19:49.610Z,77.34
2022-11-26T02:23:00.112Z,77.85
2022-11-26T02:25:48.396Z,77.41
2022-11-26T02:28:55.363Z,77.70
2022-11-26T02:31:36.264Z,77.38
2022-11-26T02:34:15.405Z,77.42
2022-11-26T02:36:55.925Z,77.47
2022-11-26T02:39:26.920Z,77.26
2022-11-26T02:41:58.804Z,76.76
2022-11-26T02:44:43.360Z,77.28
2022-11-26T02:47:15.556Z,76.78
2022-11-26T02:49:45.200Z,77.05
2022-11-26T02:52:15.419Z,77.11
2022-11-26T02:54:44.751Z,77.23
2022-11-26T02:57:17.516Z,76.85
2022-11-26T02:59:45.582Z,77.45
2022-11-26T03:02:32.486Z,77.55
2022-11-26T03:05:02.701Z,77.17
2022-11-26T03:07:32.663Z,78.02
2022-11-26T03:10:02.376Z,77.83
2022-11-26T03:12:30.297Z,78.04
2022-11-26T03:14:57.619Z,77.69
2022-11-26T03:17:24.844Z,77.87
2022-11-26T03:19:52.364Z,77.75
2022-11-26T03:22:19.577Z,77.11
2022-11-26T03:24:46.798Z,77.74
2022-11-26T03:27:13.978Z,78.03
2022-11-26T03:29:41.142Z,77.71
2022-11-26T03:32:08.527Z,77.25
2022-11-26T03:34:35.792Z,77.96
2022-11-26T03:37:03.149Z,77.93
2022-11-26T03:39:30.275Z,77.70
2022-11-26T03:41:57.462Z,77.72
2022-11-26T03:44:24.586Z,77.84
2022-11-26T03:46:51.733Z,77.74
2022-11-26T03:49:19.034Z,77.58
2022-11-26T03:51:46.139Z,77.91
2022-11-26T03:54:13.381Z,77.30
2022-11-26T03:56:40.551Z,77.46
2022-11-26T03:59:07.773Z,77.65
2022-11-26T04:01:35.007Z,77.34
2022-11-26T04:04:02.278Z,77.57
2022-11-26T04:06:29.453Z,77.31
2022-11-26T04:08:56.637Z,77.27
2022-11-26T04:11:23.787Z,77.37
2022-11-26T04:13:50.913Z,77.92
2022-11-26T04:16:18.139Z,77.35
2022-11-26T04:18:45.386Z,77.54
2022-11-26T04:21:12.575Z,77.66
2022-11-26T04:23:39.851Z,77.42
2022-11-26T04:26:07.049Z,77.51
2022-11-26T04:28:34.180Z,77.50
2022-11-26T04:31:01.642Z,77.46
2022-11-26T04:33:28.798Z,77.31
2022-11-26T04:35:56.249Z,77.38
2022-11-26T04:38:25.945Z,77.09
2022-11-26T04:40:53.431Z,77.58
2022-11-26T04:43:20.830Z,77.40
2022-11-26T04:45:48.069Z,77.61
2022-11-26T04:48:15.567Z,77.64
2022-11-26T04:50:42.675Z,77.96
2022-11-26T04:53:09.921Z,77.84
2022-11-26T04:55:37.548Z,78.05
2022-11-26T04:58:04.786Z,78.52
2022-11-26T05:00:31.955Z,78.27
2022-11-26T05:02:59.183Z,78.29
2022-11-26T05:05:26.402Z,78.37
2022-11-26T05:07:53.695Z,78.53
2022-11-26T05:10:21.010Z,78.35
2022-11-26T05:12:48.176Z,78.59
2022-11-26T05:15:15.415Z,78.52
2022-11-26T05:17:42.674Z,78.49
2022-11-26T05:20:10.909Z,77.86
2022-11-26T05:22:38.065Z,78.04
2022-11-26T05:25:05.500Z,78.57
2022-11-26T05:27:32.727Z,78.19
2022-11-26T05:30:00.039Z,78.30
2022-11-26T05:32:27.709Z,78.69
2022-11-26T05:34:59.865Z,79.15
2022-11-26T05:37:27.460Z,78.32
2022-11-26T05:39:54.638Z,78.37
2022-11-26T05:42:22.028Z,78.60
2022-11-26T05:44:49.126Z,78.63
2022-11-26T05:47:16.294Z,78.13
2022-11-26T05:49:43.467Z,78.43
2022-11-26T05:52:10.827Z,78.69
2022-11-26T05:54:38.256Z,78.20
2022-11-26T05:57:05.569Z,78.38
2022-11-26T05:59:32.675Z,78.92
2022-11-26T06:01:59.833Z,78.28
2022-11-26T06:04:27.008Z,78.78
2022-11-26T06:06:54.193Z,78.67
2022-11-26T06:09:22.052Z,78.83
2022-11-26T06:11:52.516Z,78.88
2022-11-26T06:14:22.779Z,79.09
2022-11-26T06:16:50.125Z,78.68
2022-11-26T06:19:17.368Z,78.90
2022-11-26T06:21:44.633Z,79.46
2022-11-26T06:24:12.172Z,79.00
2022-11-26T06:26:39.345Z,79.25
2022-11-26T06:29:06.599Z,79.50
2022-11-26T06:31:34.120Z,79.54
2022-11-26T06:34:01.435Z,80.16
2022-11-26T06:36:28.691Z,79.86
2022-11-26T06:38:55.812Z,80.15
2022-11-26T06:41:23.166Z,80.29
2022-11-26T06:46:34.992Z,80.21
2022-11-26T06:51:38.575Z,80.52
2022-11-26T06:54:05.843Z,80.09
2022-11-26T06:56:38.185Z,80.20
2022-11-26T06:59:06.053Z,79.98
2022-11-26T07:01:33.400Z,80.35
2022-11-26T07:31:30.217Z,79.94
2022-11-26T07:33:58.548Z,80.42
2022-11-26T07:36:28.960Z,80.27
2022-11-26T07:39:02.631Z,80.40
2022-11-26T07:41:31.624Z,80.20
2022-11-26T07:43:58.773Z,80.66
2022-11-26T07:46:27.156Z,80.75
2022-11-26T07:48:56.771Z,80.96
2022-11-26T07:51:31.872Z,80.93
2022-11-26T07:54:03.368Z,80.69
2022-11-26T07:56:30.771Z,80.78
2022-11-26T08:01:30.442Z,81.24
2022-11-26T08:04:01.648Z,81.57
2022-11-26T08:06:32.931Z,81.61
2022-11-26T08:09:09.192Z,81.55
2022-11-26T10:26:48.193Z,82.00
2022-11-26T10:46:34.572Z,82.67
2022-11-26T10:49:26.697Z,82.11
2022-11-26T10:52:04.100Z,81.42
2022-11-26T10:54:44.532Z,81.25
2022-11-26T11:00:39.378Z,83.00
2022-11-26T11:06:38.852Z,81.91
2022-11-26T11:09:26.372Z,80.80
2022-11-26T11:48:26.293Z,81.77
2022-11-26T11:54:03.067Z,81.35
2022-11-26T11:56:40.753Z,81.70
2022-11-26T12:02:39.447Z,82.39
2022-11-26T12:23:27.025Z,81.62
2022-11-26T12:26:30.188Z,81.49
2022-11-26T12:29:17.697Z,81.39
2022-11-26T12:32:05.159Z,81.11
2022-11-26T12:34:49.487Z,81.73
2022-11-26T12:44:31.195Z,81.63
2022-11-26T12:53:40.856Z,81.51
2022-11-26T12:59:00.358Z,82.63
2022-11-26T15:32:06.887Z,82.27
2022-11-26T15:56:45.857Z,82.45
2022-11-26T15:59:22.432Z,82.12
2022-11-26T16:01:50.693Z,82.07
2022-11-26T16:04:35.658Z,81.93
2022-11-26T16:07:16.597Z,81.75
2022-11-26T16:09:45.435Z,82.18
2022-11-26T16:12:34.343Z,82.16
2022-11-26T16:17:43.057Z,81.85
2022-11-26T16:20:27.400Z,81.85
2022-11-26T16:22:59.222Z,81.93
2022-11-26T16:25:34.462Z,81.73
2022-11-26T16:28:21.905Z,81.74
2022-11-26T16:30:49.156Z,82.52
2022-11-26T16:33:22.162Z,82.58
2022-11-26T16:36:02.274Z,81.96
2022-11-26T16:38:43.689Z,82.53
2022-11-26T16:41:30.321Z,82.32
2022-11-26T16:43:58.726Z,82.04
2022-11-26T16:46:28.104Z,82.23
2022-11-26T16:49:03.595Z,82.70
2022-11-26T16:51:31.674Z,82.43
2022-11-26T16:53:58.879Z,82.68
2022-11-26T16:56:39.503Z,81.59
2022-11-26T16:59:19.615Z,81.76
2022-11-26T17:01:47.150Z,81.83
2022-11-26T17:04:14.775Z,81.53
2022-11-26T17:06:43.292Z,81.23
2022-11-26T17:09:18.830Z,81.71
2022-11-26T17:11:46.727Z,80.96
2022-11-26T17:14:14.817Z,80.74
2022-11-26T17:16:42.173Z,80.64
2022-11-26T17:19:15.187Z,80.35
2022-11-26T17:21:42.704Z,81.00
2022-11-26T17:24:09.945Z,81.23
2022-11-26T17:26:37.380Z,80.99
2022-11-26T17:29:04.612Z,81.41
2022-11-26T17:31:31.905Z,80.85
2022-11-26T17:33:59.278Z,80.62
2022-11-26T17:36:26.583Z,80.84
2022-11-26T17:38:53.800Z,80.51
2022-11-26T17:41:21.158Z,80.43
2022-11-26T17:43:48.361Z,80.35
2022-11-26T17:46:20.029Z,80.37
2022-11-26T17:48:49.164Z,80.05
2022-11-26T17:51:16.790Z,79.48
2022-11-26T17:53:45.328Z,80.27
2022-11-26T17:56:27.128Z,80.17
2022-11-26T17:58:54.756Z,79.75
2022-11-26T18:01:22.338Z,80.28
2022-11-26T18:03:49.542Z,80.38
2022-11-26T18:06:39.289Z,79.49
2022-11-26T18:09:06.421Z,80.27
2022-11-26T18:11:53.536Z,81.38
2022-11-26T18:14:21.597Z,81.02
2022-11-26T18:16:49.959Z,80.96
2022-11-26T18:19:20.308Z,80.65
2022-11-26T18:21:50.739Z,80.96
2022-11-26T18:24:18.292Z,80.83
2022-11-26T18:26:45.501Z,80.45
2022-11-26T18:29:13.381Z,80.31
2022-11-26T18:34:32.952Z,79.53
2022-11-26T18:37:00.391Z,80.14
2022-11-26T18:39:28.661Z,80.25
2022-11-26T18:42:15.421Z,79.83
2022-11-26T18:44:44.051Z,79.60
2022-11-26T18:47:13.020Z,79.65
2022-11-26T18:49:44.525Z,79.92
2022-11-26T18:52:13.404Z,80.62
2022-11-26T18:54:41.370Z,79.76
2022-11-26T18:57:08.993Z,79.93
2022-11-26T18:59:37.043Z,80.83
2022-11-26T19:02:06.810Z,80.83
2022-11-26T19:04:38.444Z,80.74
2022-11-26T19:07:09.470Z,81.07
2022-11-26T19:09:40.515Z,81.70
2022-11-26T19:12:08.874Z,81.23
2022-11-26T19:14:36.184Z,81.53
2022-11-26T19:17:04.676Z,81.73
2022-11-26T19:19:33.239Z,81.67
2022-11-26T19:22:02.081Z,81.41
2022-11-26T19:24:31.006Z,81.60
2022-11-26T19:26:58.459Z,82.11
2022-11-26T19:29:25.906Z,81.73
2022-11-26T19:31:54.752Z,81.97
2022-11-26T19:34:25.385Z,81.90
2022-11-26T19:40:06.015Z,81.42
2022-11-26T19:45:12.741Z,80.77
2022-11-26T19:47:39.960Z,80.90
2022-11-26T19:50:09.433Z,81.11
2022-11-26T19:52:36.551Z,80.74
2022-11-26T19:55:04.492Z,80.82
2022-11-26T19:57:31.637Z,80.52
2022-11-26T19:59:58.848Z,81.11
2022-11-26T20:02:26.392Z,80.34
2022-11-26T20:04:53.667Z,80.74
2022-11-26T20:07:20.892Z,80.85
2022-11-26T20:09:52.432Z,81.19
2022-11-26T20:12:20.379Z,80.56
2022-11-26T20:14:49.574Z,80.29
2022-11-26T20:17:18.988Z,80.24
2022-11-26T20:19:46.708Z,80.48
2022-11-26T20:22:14.333Z,80.79
2022-11-26T20:24:42.777Z,80.62
2022-11-26T20:27:11.324Z,80.64
2022-11-26T20:29:39.731Z,80.80
2022-11-26T20:32:09.525Z,80.37
2022-11-26T20:34:53.616Z,80.73
2022-11-26T20:37:24.959Z,80.92
2022-11-26T20:39:53.272Z,81.02
2022-11-26T20:42:20.904Z,80.78
2022-11-26T20:44:49.745Z,80.95
2022-11-26T20:47:19.197Z,80.75
2022-11-26T20:49:47.735Z,81.34
2022-11-26T20:52:16.562Z,81.34
2022-11-26T20:54:50.813Z,81.46
2022-11-26T20:57:34.054Z,81.59
2022-11-26T21:00:14.456Z,80.46
2022-11-26T21:16:43.654Z,81.29
2022-11-26T21:28:26.117Z,81.59
2022-11-26T21:34:06.899Z,80.89
2022-11-26T21:47:42.258Z,80.85
2022-11-26T21:50:30.990Z,80.83
2022-11-26T21:58:34.514Z,80.20
2022-11-26T22:01:29.373Z,80.68
2022-11-26T22:04:00.089Z,80.45
2022-11-26T22:06:32.337Z,80.57
2022-11-26T22:09:02.510Z,80.36
2022-11-26T22:11:55.903Z,79.83
2022-11-26T22:14:37.974Z,79.97
2022-11-26T22:17:07.853Z,80.15
2022-11-26T22:19:47.480Z,80.32
2022-11-26T22:22:17.022Z,80.47
2022-11-26T22:24:50.665Z,80.21
2022-11-26T22:27:25.978Z,80.18
2022-11-26T22:29:56.640Z,80.41
2022-11-26T22:32:39.670Z,80.64
2022-11-26T22:35:16.347Z,79.99
2022-11-26T22:37:54.060Z,80.12
2022-11-26T22:40:28.455Z,80.16
2022-11-26T22:43:00.738Z,80.77
2022-11-26T22:45:32.955Z,80.85
2022-11-26T22:48:07.276Z,80.61
2022-11-26T22:50:43.718Z,80.53
2022-11-26T22:53:13.036Z,80.62
2022-11-26T22:55:53.398Z,80.33
2022-11-26T22:58:24.942Z,80.40
2022-11-26T23:01:09.771Z,79.93
2022-11-26T23:03:41.686Z,79.55
2022-11-26T23:06:13.809Z,79.61
2022-11-26T23:08:45.063Z,79.62
2022-11-26T23:11:19.769Z,79.53
2022-11-26T23:13:51.887Z,79.99
2022-11-26T23:16:25.686Z,79.97
2022-11-26T23:18:56.235Z,79.94
2022-11-26T23:21:33.688Z,79.79
2022-11-26T23:24:07.643Z,79.41
2022-11-26T23:26:38.733Z,79.47
2022-11-26T23:29:07.915Z,79.22
2022-11-26T23:31:44.512Z,79.55
2022-11-26T23:34:12.677Z,79.36
2022-11-26T23:36:39.952Z,79.31
2022-11-26T23:39:11.179Z,79.02
2022-11-26T23:41:38.396Z,79.31
2022-11-26T23:44:05.827Z,79.27
2022-11-26T23:46:35.445Z,79.25
2022-11-26T23:49:02.851Z,79.21
2022-11-26T23:51:32.356Z,79.15
2022-11-26T23:53:59.827Z,79.29
2022-11-26T23:56:31.576Z,79.17
2022-11-26T23:59:02.176Z,78.83
